Merricourt, North Dakota
Current Conditions -  °F | °C
As of 5:56 AM on Sunday 23 Nov 2014 (Local Time) from KJMS Reporting Station
Overcast Overcast  
Wind Chill: 33°   Ceiling: 7500
Heat Index: 40°   Visibility: 10mi
Dew Point: 33°   Wind: 13mph
Humidity: 77%   Direction: 280°W
Pressure: 29.4"   Gusts: NA
Location:  46.2592°N, 98.7407°W
Report Text: KJMS 231156Z AUTO 28011KT 10SM BKN075 OVC090 04/01 A2940 RMK AO2 SLP968 60000 T00440006 10050 21033 51012
Loading
Personal Weather Stations






























Interactive Weather Map New forecast layout! Learn more

10-Day Weather Forecast

Advertisements
Track Severe Weather on mobile